sensor_id;sensor_type;location;lat;lon;timestamp;pressure;altitude;pressure_sealevel;temperature;humidity
25080;BME280;13071;48.868;9.996;2023-07-02T00:01:32;95896.84;;;17.05;100.00
25080;BME280;13071;48.868;9.996;2023-07-02T00:03:59;95901.13;;;16.92;100.00
25080;BME280;13071;48.868;9.996;2023-07-02T00:06:26;95906.19;;;16.90;100.00
25080;BME280;13071;48.868;9.996;2023-07-02T00:08:53;95903.78;;;16.77;100.00
25080;BME280;13071;48.868;9.996;2023-07-02T00:11:19;95905.78;;;16.77;100.00
25080;BME280;13071;48.868;9.996;2023-07-02T00:13:46;95911.63;;;16.93;100.00
25080;BME280;13071;48.868;9.996;2023-07-02T00:16:12;95904.97;;;16.73;100.00
25080;BME280;13071;48.868;9.996;2023-07-02T00:18:39;95916.25;;;16.68;100.00
25080;BME280;13071;48.868;9.996;2023-07-02T00:21:07;95909.59;;;16.58;100.00
25080;BME280;13071;48.868;9.996;2023-07-02T00:23:38;95916.66;;;16.73;100.00
25080;BME280;13071;48.868;9.996;2023-07-02T00:26:05;95917.06;;;16.82;100.00
25080;BME280;13071;48.868;9.996;2023-07-02T00:28:31;95914.34;;;16.75;100.00
25080;BME280;13071;48.868;9.996;2023-07-02T00:30:58;95912.78;;;16.67;100.00
25080;BME280;13071;48.868;9.996;2023-07-02T00:33:24;95916.28;;;16.71;100.00
25080;BME280;13071;48.868;9.996;2023-07-02T00:35:51;95914.31;;;16.68;100.00
25080;BME280;13071;48.868;9.996;2023-07-02T00:38:19;95914.31;;;16.65;100.00
25080;BME280;13071;48.868;9.996;2023-07-02T00:40:45;95919.41;;;16.73;100.00
25080;BME280;13071;48.868;9.996;2023-07-02T00:43:12;95914.31;;;16.65;100.00
25080;BME280;13071;48.868;9.996;2023-07-02T00:45:39;95911.22;;;16.66;100.00
25080;BME280;13071;48.868;9.996;2023-07-02T00:48:05;95920.22;;;16.88;100.00
25080;BME280;13071;48.868;9.996;2023-07-02T00:50:32;95917.50;;;16.92;100.00
25080;BME280;13071;48.868;9.996;2023-07-02T00:52:59;95923.75;;;16.81;100.00
25080;BME280;13071;48.868;9.996;2023-07-02T00:55:27;95918.63;;;16.73;100.00
25080;BME280;13071;48.868;9.996;2023-07-02T00:57:53;95921.34;;;16.73;100.00
25080;BME280;13071;48.868;9.996;2023-07-02T01:00:21;95923.72;;;16.74;100.00
25080;BME280;13071;48.868;9.996;2023-07-02T01:02:53;95930.00;;;16.82;100.00
25080;BME280;13071;48.868;9.996;2023-07-02T01:05:22;95920.59;;;16.76;100.00
25080;BME280;13071;48.868;9.996;2023-07-02T01:07:49;95923.69;;;16.67;100.00
25080;BME280;13071;48.868;9.996;2023-07-02T01:10:15;95915.47;;;16.64;100.00
25080;BME280;13071;48.868;9.996;2023-07-02T01:12:43;95921.34;;;16.62;100.00
25080;BME280;13071;48.868;9.996;2023-07-02T01:15:12;95917.78;;;16.58;100.00
25080;BME280;13071;48.868;9.996;2023-07-02T01:17:39;95909.56;;;16.51;100.00
25080;BME280;13071;48.868;9.996;2023-07-02T01:20:09;95923.97;;;16.41;100.00
25080;BME280;13071;48.868;9.996;2023-07-02T01:22:36;95912.63;;;16.39;100.00
25080;BME280;13071;48.868;9.996;2023-07-02T01:25:04;95919.66;;;16.36;100.00
25080;BME280;13071;48.868;9.996;2023-07-02T01:27:31;95917.34;;;16.49;100.00
25080;BME280;13071;48.868;9.996;2023-07-02T01:29:58;95926.69;;;16.45;100.00
25080;BME280;13071;48.868;9.996;2023-07-02T01:32:24;95920.84;;;16.46;100.00
25080;BME280;13071;48.868;9.996;2023-07-02T01:34:51;95931.31;;;16.26;100.00
25080;BME280;13071;48.868;9.996;2023-07-02T01:37:20;95928.16;;;16.21;100.00
25080;BME280;13071;48.868;9.996;2023-07-02T01:39:47;95918.03;;;16.25;100.00
25080;BME280;13071;48.868;9.996;2023-07-02T01:42:14;95918.44;;;16.30;100.00
25080;BME280;13071;48.868;9.996;2023-07-02T01:44:42;95921.19;;;16.30;100.00
25080;BME280;13071;48.868;9.996;2023-07-02T01:47:09;95915.72;;;16.27;100.00
25080;BME280;13071;48.868;9.996;2023-07-02T01:49:36;95920.75;;;16.18;100.00
25080;BME280;13071;48.868;9.996;2023-07-02T01:52:03;95919.16;;;16.17;100.00
25080;BME280;13071;48.868;9.996;2023-07-02T01:54:33;95927.75;;;16.19;100.00
25080;BME280;13071;48.868;9.996;2023-07-02T01:56:59;95924.19;;;16.08;100.00
25080;BME280;13071;48.868;9.996;2023-07-02T01:59:26;95922.34;;;16.29;100.00
25080;BME280;13071;48.868;9.996;2023-07-02T02:01:53;95927.72;;;16.12;100.00
25080;BME280;13071;48.868;9.996;2023-07-02T02:04:19;95925.00;;;16.19;100.00
25080;BME280;13071;48.868;9.996;2023-07-02T02:06:46;95928.94;;;16.18;100.00
25080;BME280;13071;48.868;9.996;2023-07-02T02:09:13;95924.56;;;16.03;100.00
25080;BME280;13071;48.868;9.996;2023-07-02T02:11:42;95930.81;;;16.03;100.00
25080;BME280;13071;48.868;9.996;2023-07-02T02:14:09;95933.91;;;16.02;100.00
25080;BME280;13071;48.868;9.996;2023-07-02T02:16:36;95937.38;;;15.98;100.00
25080;BME280;13071;48.868;9.996;2023-07-02T02:19:03;95941.72;;;16.03;100.00
25080;BME280;13071;48.868;9.996;2023-07-02T02:21:30;95944.41;;;15.96;100.00
25080;BME280;13071;48.868;9.996;2023-07-02T02:23:57;95946.78;;;16.05;100.00
25080;BME280;13071;48.868;9.996;2023-07-02T02:26:23;95942.53;;;16.11;100.00
25080;BME280;13071;48.868;9.996;2023-07-02T02:28:52;95931.97;;;16.02;100.00
25080;BME280;13071;48.868;9.996;2023-07-02T02:31:18;95940.06;;;15.91;100.00
25080;BME280;13071;48.868;9.996;2023-07-02T02:33:45;95933.84;;;15.91;100.00
25080;BME280;13071;48.868;9.996;2023-07-02T02:36:11;95924.91;;;15.97;100.00
25080;BME280;13071;48.868;9.996;2023-07-02T02:38:38;95929.59;;;15.97;100.00
25080;BME280;13071;48.868;9.996;2023-07-02T02:41:05;95931.09;;;15.87;100.00
25080;BME280;13071;48.868;9.996;2023-07-02T02:43:33;95923.66;;;15.84;100.00
25080;BME280;13071;48.868;9.996;2023-07-02T02:46:01;95922.88;;;15.84;100.00
25080;BME280;13071;48.868;9.996;2023-07-02T02:48:28;95929.09;;;15.81;100.00
25080;BME280;13071;48.868;9.996;2023-07-02T02:50:54;95937.63;;;15.76;100.00
25080;BME280;13071;48.868;9.996;2023-07-02T02:53:21;95935.97;;;15.64;100.00
25080;BME280;13071;48.868;9.996;2023-07-02T02:55:48;95939.94;;;15.70;100.00
25080;BME280;13071;48.868;9.996;2023-07-02T02:58:14;95937.28;;;15.81;100.00
25080;BME280;13071;48.868;9.996;2023-07-02T03:00:41;95933.34;;;15.75;100.00
25080;BME280;13071;48.868;9.996;2023-07-02T03:03:12;95934.88;;;15.72;100.00
25080;BME280;13071;48.868;9.996;2023-07-02T03:05:38;95940.28;;;15.65;100.00
25080;BME280;13071;48.868;9.996;2023-07-02T03:08:05;95936.47;;;15.77;100.00
25080;BME280;13071;48.868;9.996;2023-07-02T03:10:32;95944.66;;;15.73;100.00
25080;BME280;13071;48.868;9.996;2023-07-02T03:12:58;95943.47;;;15.74;100.00
25080;BME280;13071;48.868;9.996;2023-07-02T03:15:25;95945.84;;;15.79;100.00
25080;BME280;13071;48.868;9.996;2023-07-02T03:17:52;95941.94;;;15.80;100.00
25080;BME280;13071;48.868;9.996;2023-07-02T03:20:20;95937.34;;;15.91;100.00
25080;BME280;13071;48.868;9.996;2023-07-02T03:22:46;95935.34;;;15.81;100.00
25080;BME280;13071;48.868;9.996;2023-07-02T03:25:13;95936.13;;;15.85;100.00
25080;BME280;13071;48.868;9.996;2023-07-02T03:27:40;95936.91;;;15.86;100.00
25080;BME280;13071;48.868;9.996;2023-07-02T03:30:07;95946.31;;;15.92;100.00
25080;BME280;13071;48.868;9.996;2023-07-02T03:32:34;95947.91;;;15.93;100.00
25080;BME280;13071;48.868;9.996;2023-07-02T03:35:01;95948.28;;;15.95;100.00
25080;BME280;13071;48.868;9.996;2023-07-02T03:37:29;95952.22;;;15.97;100.00
25080;BME280;13071;48.868;9.996;2023-07-02T03:39:55;95948.78;;;16.11;100.00
25080;BME280;13071;48.868;9.996;2023-07-02T03:42:23;95949.84;;;15.96;100.00
25080;BME280;13071;48.868;9.996;2023-07-02T03:44:50;95955.38;;;16.03;100.00
25080;BME280;13071;48.868;9.996;2023-07-02T03:47:17;95955.66;;;15.87;100.00
25080;BME280;13071;48.868;9.996;2023-07-02T03:49:44;95954.53;;;15.99;100.00
25080;BME280;13071;48.868;9.996;2023-07-02T03:52:11;95952.63;;;16.03;100.00
25080;BME280;13071;48.868;9.996;2023-07-02T03:54:39;95953.78;;;16.02;100.00
25080;BME280;13071;48.868;9.996;2023-07-02T03:57:06;95965.44;;;15.92;100.00
25080;BME280;13071;48.868;9.996;2023-07-02T03:59:32;95960.00;;;15.99;100.00
25080;BME280;13071;48.868;9.996;2023-07-02T04:01:59;95965.41;;;15.88;100.00
25080;BME280;13071;48.868;9.996;2023-07-02T04:04:25;95970.88;;;15.88;100.00
25080;BME280;13071;48.868;9.996;2023-07-02T04:06:52;95978.72;;;16.01;100.00
25080;BME280;13071;48.868;9.996;2023-07-02T04:09:18;95973.72;;;16.10;100.00
25080;BME280;13071;48.868;9.996;2023-07-02T04:11:47;95971.69;;;15.99;100.00
25080;BME280;13071;48.868;9.996;2023-07-02T04:14:14;95977.94;;;16.00;100.00
25080;BME280;13071;48.868;9.996;2023-07-02T04:16:43;95972.19;;;16.12;100.00
25080;BME280;13071;48.868;9.996;2023-07-02T04:19:10;95985.34;;;15.99;100.00
25080;BME280;13071;48.868;9.996;2023-07-02T04:21:36;95994.03;;;16.19;100.00
25080;BME280;13071;48.868;9.996;2023-07-02T04:24:04;95994.31;;;16.00;100.00
25080;BME280;13071;48.868;9.996;2023-07-02T04:26:30;96002.81;;;15.03;100.00
25080;BME280;13071;48.868;9.996;2023-07-02T04:28:58;96005.47;;;14.66;100.00
25080;BME280;13071;48.868;9.996;2023-07-02T04:31:25;96019.09;;;15.00;100.00
25080;BME280;13071;48.868;9.996;2023-07-02T04:33:52;96026.13;;;14.67;100.00
25080;BME280;13071;48.868;9.996;2023-07-02T04:36:18;96025.03;;;14.76;100.00
25080;BME280;13071;48.868;9.996;2023-07-02T04:38:45;96029.63;;;14.68;100.00
25080;BME280;13071;48.868;9.996;2023-07-02T04:41:12;96023.03;;;14.69;100.00
25080;BME280;13071;48.868;9.996;2023-07-02T04:43:38;96028.00;;;14.60;100.00
25080;BME280;13071;48.868;9.996;2023-07-02T04:46:06;96035.44;;;14.66;100.00
25080;BME280;13071;48.868;9.996;2023-07-02T04:48:33;96038.44;;;14.88;100.00
25080;BME280;13071;48.868;9.996;2023-07-02T04:51:00;96040.41;;;14.91;100.00
25080;BME280;13071;48.868;9.996;2023-07-02T04:53:26;96042.88;;;14.99;100.00
25080;BME280;13071;48.868;9.996;2023-07-02T04:55:53;96040.66;;;15.12;100.00
25080;BME280;13071;48.868;9.996;2023-07-02T04:58:19;96045.66;;;15.06;100.00
25080;BME280;13071;48.868;9.996;2023-07-02T05:00:46;96048.41;;;15.10;100.00
25080;BME280;13071;48.868;9.996;2023-07-02T05:03:14;96052.34;;;15.12;100.00
25080;BME280;13071;48.868;9.996;2023-07-02T05:05:41;96054.75;;;15.21;100.00
25080;BME280;13071;48.868;9.996;2023-07-02T05:08:07;96067.59;;;15.21;100.00
25080;BME280;13071;48.868;9.996;2023-07-02T05:10:34;96064.50;;;15.19;100.00
25080;BME280;13071;48.868;9.996;2023-07-02T05:13:00;96069.63;;;15.27;100.00
25080;BME280;13071;48.868;9.996;2023-07-02T05:15:27;96069.19;;;15.22;100.00
25080;BME280;13071;48.868;9.996;2023-07-02T05:17:53;96067.41;;;15.36;100.00
25080;BME280;13071;48.868;9.996;2023-07-02T05:20:22;96065.56;;;15.47;100.00
25080;BME280;13071;48.868;9.996;2023-07-02T05:22:48;96072.84;;;15.36;100.00
25080;BME280;13071;48.868;9.996;2023-07-02T05:25:15;96075.94;;;15.35;100.00
25080;BME280;13071;48.868;9.996;2023-07-02T05:27:41;96077.66;;;15.50;100.00
25080;BME280;13071;48.868;9.996;2023-07-02T05:30:09;96084.56;;;15.40;100.00
25080;BME280;13071;48.868;9.996;2023-07-02T05:32:35;96088.84;;;15.38;100.00
25080;BME280;13071;48.868;9.996;2023-07-02T05:35:02;96087.25;;;15.37;100.00
25080;BME280;13071;48.868;9.996;2023-07-02T05:37:30;96087.59;;;15.32;100.00
25080;BME280;13071;48.868;9.996;2023-07-02T05:39:57;96081.31;;;15.28;100.00
25080;BME280;13071;48.868;9.996;2023-07-02T05:42:23;96081.06;;;15.40;100.00
25080;BME280;13071;48.868;9.996;2023-07-02T05:44:50;96083.88;;;15.47;100.00
25080;BME280;13071;48.868;9.996;2023-07-02T05:47:16;96082.00;;;15.54;100.00
25080;BME280;13071;48.868;9.996;2023-07-02T05:49:43;96085.25;;;15.64;100.00
25080;BME280;13071;48.868;9.996;2023-07-02T05:52:10;96098.22;;;15.77;100.00
25080;BME280;13071;48.868;9.996;2023-07-02T05:54:40;96097.06;;;15.78;100.00
25080;BME280;13071;48.868;9.996;2023-07-02T05:57:06;96104.56;;;15.88;100.00
25080;BME280;13071;48.868;9.996;2023-07-02T05:59:33;96101.88;;;15.95;100.00
25080;BME280;13071;48.868;9.996;2023-07-02T06:01:59;96106.63;;;16.02;100.00
25080;BME280;13071;48.868;9.996;2023-07-02T06:04:26;96108.28;;;16.14;100.00
25080;BME280;13071;48.868;9.996;2023-07-02T06:06:53;96101.63;;;16.11;100.00
25080;BME280;13071;48.868;9.996;2023-07-02T06:09:19;96108.00;;;16.26;100.00
25080;BME280;13071;48.868;9.996;2023-07-02T06:11:47;96107.66;;;16.34;99.60
25080;BME280;13071;48.868;9.996;2023-07-02T06:14:14;96118.13;;;16.25;99.50
25080;BME280;13071;48.868;9.996;2023-07-02T06:16:40;96103.84;;;16.46;97.91
25080;BME280;13071;48.868;9.996;2023-07-02T06:19:07;96113.97;;;16.46;96.78
25080;BME280;13071;48.868;9.996;2023-07-02T06:21:34;96111.59;;;16.37;96.37
25080;BME280;13071;48.868;9.996;2023-07-02T06:24:01;96110.72;;;16.77;96.66
25080;BME280;13071;48.868;9.996;2023-07-02T06:26:28;96099.59;;;17.24;93.99
25080;BME280;13071;48.868;9.996;2023-07-02T06:28:56;96100.50;;;17.60;92.37
25080;BME280;13071;48.868;9.996;2023-07-02T06:31:23;96095.84;;;17.75;91.12
25080;BME280;13071;48.868;9.996;2023-07-02T06:33:50;96095.47;;;17.80;90.85
25080;BME280;13071;48.868;9.996;2023-07-02T06:36:17;96093.81;;;17.58;91.04
25080;BME280;13071;48.868;9.996;2023-07-02T06:38:44;96097.72;;;17.46;91.88
25080;BME280;13071;48.868;9.996;2023-07-02T06:41:10;96097.31;;;17.44;91.30
25080;BME280;13071;48.868;9.996;2023-07-02T06:43:37;96107.44;;;17.33;91.85
25080;BME280;13071;48.868;9.996;2023-07-02T06:46:05;96089.09;;;17.48;88.95
25080;BME280;13071;48.868;9.996;2023-07-02T06:48:31;96096.94;;;17.53;88.64
25080;BME280;13071;48.868;9.996;2023-07-02T06:50:59;96098.63;;;18.00;89.58
25080;BME280;13071;48.868;9.996;2023-07-02T06:53:25;96102.50;;;18.27;85.91
25080;BME280;13071;48.868;9.996;2023-07-02T06:55:52;96095.47;;;18.33;84.63
25080;BME280;13071;48.868;9.996;2023-07-02T06:58:18;96091.94;;;18.43;83.84
25080;BME280;13071;48.868;9.996;2023-07-02T07:00:45;96098.59;;;18.49;83.92
25080;BME280;13071;48.868;9.996;2023-07-02T07:03:13;96104.88;;;18.53;83.53
25080;BME280;13071;48.868;9.996;2023-07-02T07:05:40;96105.66;;;18.19;82.30
25080;BME280;13071;48.868;9.996;2023-07-02T07:08:07;96104.88;;;18.18;83.89
25080;BME280;13071;48.868;9.996;2023-07-02T07:10:34;96104.88;;;18.39;84.52
25080;BME280;13071;48.868;9.996;2023-07-02T07:13:00;96110.34;;;18.39;83.17
25080;BME280;13071;48.868;9.996;2023-07-02T07:15:32;96109.19;;;18.33;82.34
25080;BME280;13071;48.868;9.996;2023-07-02T07:17:58;96101.34;;;18.42;80.39
25080;BME280;13071;48.868;9.996;2023-07-02T07:20:26;96110.31;;;18.78;81.22
25080;BME280;13071;48.868;9.996;2023-07-02T07:22:53;96112.94;;;19.10;77.77
25080;BME280;13071;48.868;9.996;2023-07-02T07:25:19;96108.34;;;18.82;74.54
25080;BME280;13071;48.868;9.996;2023-07-02T07:27:46;96114.66;;;18.58;76.37
25080;BME280;13071;48.868;9.996;2023-07-02T07:30:13;96116.22;;;18.59;74.74
25080;BME280;13071;48.868;9.996;2023-07-02T07:32:39;96118.94;;;18.84;75.45
25080;BME280;13071;48.868;9.996;2023-07-02T07:35:06;96116.88;;;19.16;75.33
25080;BME280;13071;48.868;9.996;2023-07-02T07:37:34;96114.94;;;19.03;71.81
25080;BME280;13071;48.868;9.996;2023-07-02T07:40:01;96125.19;;;18.88;72.76
25080;BME280;13071;48.868;9.996;2023-07-02T07:42:28;96125.19;;;18.81;73.46
25080;BME280;13071;48.868;9.996;2023-07-02T07:44:55;96124.06;;;18.53;74.00
25080;BME280;13071;48.868;9.996;2023-07-02T07:47:21;96125.97;;;18.35;75.54
25080;BME280;13071;48.868;9.996;2023-07-02T07:49:48;96134.22;;;18.42;75.43
25080;BME280;13071;48.868;9.996;2023-07-02T07:52:15;96129.16;;;18.30;75.13
25080;BME280;13071;48.868;9.996;2023-07-02T07:54:43;96128.34;;;18.26;75.74
25080;BME280;13071;48.868;9.996;2023-07-02T07:57:09;96134.59;;;18.23;74.76
25080;BME280;13071;48.868;9.996;2023-07-02T07:59:36;96136.19;;;18.49;75.32
25080;BME280;13071;48.868;9.996;2023-07-02T08:02:03;96128.75;;;18.49;72.75
25080;BME280;13071;48.868;9.996;2023-07-02T08:04:30;96131.47;;;18.53;73.59
25080;BME280;13071;48.868;9.996;2023-07-02T08:06:56;96137.34;;;18.44;74.39
25080;BME280;13071;48.868;9.996;2023-07-02T08:09:23;96136.19;;;18.24;73.49
25080;BME280;13071;48.868;9.996;2023-07-02T08:11:51;96131.09;;;18.19;73.46
25080;BME280;13071;48.868;9.996;2023-07-02T08:14:17;96130.31;;;18.15;74.41
25080;BME280;13071;48.868;9.996;2023-07-02T08:16:44;96135.00;;;18.39;76.00
25080;BME280;13071;48.868;9.996;2023-07-02T08:19:11;96136.94;;;18.53;74.72
25080;BME280;13071;48.868;9.996;2023-07-02T08:21:37;96140.88;;;18.70;74.91
25080;BME280;13071;48.868;9.996;2023-07-02T08:24:04;96144.41;;;18.74;72.42
25080;BME280;13071;48.868;9.996;2023-07-02T08:26:31;96134.13;;;19.13;73.56
25080;BME280;13071;48.868;9.996;2023-07-02T08:28:59;96145.41;;;19.33;71.85
25080;BME280;13071;48.868;9.996;2023-07-02T08:31:26;96132.50;;;19.26;72.00
25080;BME280;13071;48.868;9.996;2023-07-02T08:33:52;96140.75;;;19.16;72.32
25080;BME280;13071;48.868;9.996;2023-07-02T08:36:19;96142.28;;;19.27;73.02
25080;BME280;13071;48.868;9.996;2023-07-02T08:38:45;96140.34;;;19.24;71.31
25080;BME280;13071;48.868;9.996;2023-07-02T08:41:12;96146.66;;;19.18;69.86
25080;BME280;13071;48.868;9.996;2023-07-02T08:43:39;96145.13;;;18.95;69.99
25080;BME280;13071;48.868;9.996;2023-07-02T08:46:08;96143.47;;;19.19;70.26
25080;BME280;13071;48.868;9.996;2023-07-02T08:48:35;96143.03;;;19.46;70.66
25080;BME280;13071;48.868;9.996;2023-07-02T08:51:02;96146.03;;;19.69;69.29
25080;BME280;13071;48.868;9.996;2023-07-02T08:53:29;96145.22;;;19.82;69.15
25080;BME280;13071;48.868;9.996;2023-07-02T08:55:58;96141.94;;;19.98;69.64
25080;BME280;13071;48.868;9.996;2023-07-02T08:58:25;96129.16;;;19.77;67.78
25080;BME280;13071;48.868;9.996;2023-07-02T09:01:05;96138.50;;;19.83;68.03
25080;BME280;13071;48.868;9.996;2023-07-02T09:03:33;96138.94;;;19.78;66.73
25080;BME280;13071;48.868;9.996;2023-07-02T09:06:02;96130.63;;;19.89;67.38
25080;BME280;13071;48.868;9.996;2023-07-02T09:08:29;96135.25;;;20.06;67.93
25080;BME280;13071;48.868;9.996;2023-07-02T09:11:08;96133.09;;;20.28;66.73
25080;BME280;13071;48.868;9.996;2023-07-02T09:13:45;96141.78;;;20.75;65.72
25080;BME280;13071;48.868;9.996;2023-07-02T09:16:22;96140.91;;;20.85;63.15
25080;BME280;13071;48.868;9.996;2023-07-02T09:19:01;96143.41;;;20.68;64.00
25080;BME280;13071;48.868;9.996;2023-07-02T09:21:38;96146.34;;;20.88;63.36
25080;BME280;13071;48.868;9.996;2023-07-02T09:24:12;96142.03;;;20.43;62.64
25080;BME280;13071;48.868;9.996;2023-07-02T09:26:42;96139.03;;;20.26;63.34
25080;BME280;13071;48.868;9.996;2023-07-02T09:29:08;96124.81;;;19.80;63.17
25080;BME280;13071;48.868;9.996;2023-07-02T09:31:43;96135.34;;;19.89;62.61
25080;BME280;13071;48.868;9.996;2023-07-02T09:34:11;96132.50;;;20.06;64.03
25080;BME280;13071;48.868;9.996;2023-07-02T09:36:38;96136.53;;;20.46;61.03
25080;BME280;13071;48.868;9.996;2023-07-02T09:39:06;96136.84;;;20.55;59.78
25080;BME280;13071;48.868;9.996;2023-07-02T09:41:34;96130.44;;;20.69;60.89
25080;BME280;13071;48.868;9.996;2023-07-02T09:44:01;96129.84;;;20.88;58.86
25080;BME280;13071;48.868;9.996;2023-07-02T09:46:29;96121.53;;;21.33;56.82
25080;BME280;13071;48.868;9.996;2023-07-02T09:48:58;96128.56;;;21.68;58.54
25080;BME280;13071;48.868;9.996;2023-07-02T09:51:27;96132.72;;;21.79;57.62
25080;BME280;13071;48.868;9.996;2023-07-02T09:53:54;96128.66;;;21.61;57.90
25080;BME280;13071;48.868;9.996;2023-07-02T09:56:21;96123.56;;;21.86;56.46
25080;BME280;13071;48.868;9.996;2023-07-02T09:58:47;96120.34;;;21.91;58.10
25080;BME280;13071;48.868;9.996;2023-07-02T10:01:14;96131.56;;;21.46;57.07
25080;BME280;13071;48.868;9.996;2023-07-02T10:03:41;96128.69;;;20.45;58.39
25080;BME280;13071;48.868;9.996;2023-07-02T10:06:07;96133.56;;;20.71;58.24
25080;BME280;13071;48.868;9.996;2023-07-02T10:08:36;96136.06;;;20.00;59.68
25080;BME280;13071;48.868;9.996;2023-07-02T10:11:12;96131.06;;;20.43;59.38
25080;BME280;13071;48.868;9.996;2023-07-02T10:13:39;96131.56;;;21.16;59.27
25080;BME280;13071;48.868;9.996;2023-07-02T10:16:07;96132.78;;;21.45;57.22
25080;BME280;13071;48.868;9.996;2023-07-02T10:18:33;96123.31;;;21.46;58.04
25080;BME280;13071;48.868;9.996;2023-07-02T10:21:00;96129.09;;;21.25;57.45
25080;BME280;13071;48.868;9.996;2023-07-02T10:23:40;96130.09;;;21.38;56.15
25080;BME280;13071;48.868;9.996;2023-07-02T10:26:10;96126.81;;;21.50;56.41
25080;BME280;13071;48.868;9.996;2023-07-02T10:28:37;96128.84;;;21.09;55.71
25080;BME280;13071;48.868;9.996;2023-07-02T10:31:03;96129.53;;;21.54;55.98
25080;BME280;13071;48.868;9.996;2023-07-02T10:33:30;96129.41;;;21.91;54.20
25080;BME280;13071;48.868;9.996;2023-07-02T10:35:57;96121.38;;;22.04;53.50
25080;BME280;13071;48.868;9.996;2023-07-02T10:38:24;96120.72;;;22.47;54.14
25080;BME280;13071;48.868;9.996;2023-07-02T10:40:56;96121.31;;;22.58;51.93
25080;BME280;13071;48.868;9.996;2023-07-02T10:43:26;96112.03;;;22.48;52.36
25080;BME280;13071;48.868;9.996;2023-07-02T10:45:53;96107.34;;;22.92;51.92
25080;BME280;13071;48.868;9.996;2023-07-02T10:48:21;96114.84;;;22.68;52.24
25080;BME280;13071;48.868;9.996;2023-07-02T10:50:48;96115.63;;;22.68;51.04
25080;BME280;13071;48.868;9.996;2023-07-02T10:53:15;96106.16;;;22.93;52.67
25080;BME280;13071;48.868;9.996;2023-07-02T10:55:42;96111.38;;;22.64;51.69
25080;BME280;13071;48.868;9.996;2023-07-02T10:58:11;96114.59;;;22.35;52.63
25080;BME280;13071;48.868;9.996;2023-07-02T11:00:46;96113.69;;;22.65;52.82
25080;BME280;13071;48.868;9.996;2023-07-02T11:03:17;96115.88;;;22.77;50.85
25080;BME280;13071;48.868;9.996;2023-07-02T11:05:44;96119.19;;;22.65;51.17
25080;BME280;13071;48.868;9.996;2023-07-02T11:08:11;96110.50;;;22.90;50.77
25080;BME280;13071;48.868;9.996;2023-07-02T11:10:38;96106.06;;;22.96;52.01
25080;BME280;13071;48.868;9.996;2023-07-02T11:13:13;96111.66;;;22.69;51.07
25080;BME280;13071;48.868;9.996;2023-07-02T11:15:40;96112.78;;;22.25;51.47
25080;BME280;13071;48.868;9.996;2023-07-02T11:18:10;96108.91;;;22.46;51.55
25080;BME280;13071;48.868;9.996;2023-07-02T11:20:38;96113.22;;;22.47;51.75
25080;BME280;13071;48.868;9.996;2023-07-02T11:23:05;96107.72;;;22.47;52.11
25080;BME280;13071;48.868;9.996;2023-07-02T11:25:31;96104.25;;;22.16;51.64
25080;BME280;13071;48.868;9.996;2023-07-02T11:28:07;96104.28;;;22.63;52.61
25080;BME280;13071;48.868;9.996;2023-07-02T11:30:44;96107.47;;;22.61;53.04
25080;BME280;13071;48.868;9.996;2023-07-02T11:33:11;96102.25;;;22.44;52.52
25080;BME280;13071;48.868;9.996;2023-07-02T11:35:38;96101.78;;;22.49;53.11
25080;BME280;13071;48.868;9.996;2023-07-02T11:38:04;96109.22;;;22.02;55.13
25080;BME280;13071;48.868;9.996;2023-07-02T11:40:32;96102.03;;;22.34;52.48
25080;BME280;13071;48.868;9.996;2023-07-02T11:42:58;96104.22;;;22.66;52.29
25080;BME280;13071;48.868;9.996;2023-07-02T11:45:25;96096.56;;;22.77;51.56
25080;BME280;13071;48.868;9.996;2023-07-02T11:47:53;96100.09;;;22.78;51.12
25080;BME280;13071;48.868;9.996;2023-07-02T11:50:19;96090.66;;;23.18;51.33
25080;BME280;13071;48.868;9.996;2023-07-02T11:52:46;96084.91;;;23.29;50.36
25080;BME280;13071;48.868;9.996;2023-07-02T11:55:12;96082.94;;;23.10;51.61
25080;BME280;13071;48.868;9.996;2023-07-02T11:57:39;96086.63;;;23.43;50.96
25080;BME280;13071;48.868;9.996;2023-07-02T12:00:06;96089.94;;;23.34;50.65
25080;BME280;13071;48.868;9.996;2023-07-02T12:02:33;96089.94;;;22.95;50.12
25080;BME280;13071;48.868;9.996;2023-07-02T12:05:01;96087.47;;;23.20;51.21
25080;BME280;13071;48.868;9.996;2023-07-02T12:07:28;96077.56;;;23.22;51.92
25080;BME280;13071;48.868;9.996;2023-07-02T12:09:54;96084.16;;;23.48;49.91
25080;BME280;13071;48.868;9.996;2023-07-02T12:12:21;96083.41;;;23.64;48.92
25080;BME280;13071;48.868;9.996;2023-07-02T12:14:48;96071.53;;;23.67;51.02
25080;BME280;13071;48.868;9.996;2023-07-02T12:17:14;96080.16;;;23.69;49.90
25080;BME280;13071;48.868;9.996;2023-07-02T12:19:41;96067.94;;;23.86;48.96
25080;BME280;13071;48.868;9.996;2023-07-02T12:22:09;96072.53;;;23.57;49.78
25080;BME280;13071;48.868;9.996;2023-07-02T12:24:35;96064.59;;;23.39;49.88
25080;BME280;13071;48.868;9.996;2023-07-02T12:27:02;96074.16;;;22.95;51.53
25080;BME280;13071;48.868;9.996;2023-07-02T12:29:29;96075.34;;;22.28;53.16
25080;BME280;13071;48.868;9.996;2023-07-02T12:31:56;96085.66;;;22.70;51.74
25080;BME280;13071;48.868;9.996;2023-07-02T12:34:22;96078.81;;;22.55;53.07
25080;BME280;13071;48.868;9.996;2023-07-02T12:36:49;96069.81;;;22.05;53.03
25080;BME280;13071;48.868;9.996;2023-07-02T12:39:17;96075.16;;;21.88;54.51
25080;BME280;13071;48.868;9.996;2023-07-02T12:41:43;96069.50;;;22.69;52.61
25080;BME280;13071;48.868;9.996;2023-07-02T12:44:10;96077.47;;;22.87;51.44
25080;BME280;13071;48.868;9.996;2023-07-02T12:46:36;96075.22;;;23.21;52.01
25080;BME280;13071;48.868;9.996;2023-07-02T12:49:03;96071.59;;;23.44;50.81
25080;BME280;13071;48.868;9.996;2023-07-02T12:51:30;96074.34;;;23.44;49.23
25080;BME280;13071;48.868;9.996;2023-07-02T12:53:56;96064.81;;;23.84;48.83
25080;BME280;13071;48.868;9.996;2023-07-02T12:56:24;96065.41;;;23.76;47.21